sensor_id;sensor_type;location;lat;lon;timestamp;P1;durP1;ratioP1;P2;durP2;ratioP2
24617;SDS011;12762;51.730;5.356;2023-08-17T00:02:21;3.60;;;1.73;;
24617;SDS011;12762;51.730;5.356;2023-08-17T00:04:48;4.30;;;1.83;;
24617;SDS011;12762;51.730;5.356;2023-08-17T00:07:15;3.20;;;1.67;;
24617;SDS011;12762;51.730;5.356;2023-08-17T00:09:42;3.30;;;1.87;;
24617;SDS011;12762;51.730;5.356;2023-08-17T00:12:09;5.13;;;1.90;;
24617;SDS011;12762;51.730;5.356;2023-08-17T00:14:35;4.43;;;1.90;;
24617;SDS011;12762;51.730;5.356;2023-08-17T00:17:02;5.37;;;2.10;;
24617;SDS011;12762;51.730;5.356;2023-08-17T00:19:29;3.17;;;2.03;;
24617;SDS011;12762;51.730;5.356;2023-08-17T00:21:56;4.17;;;2.03;;
24617;SDS011;12762;51.730;5.356;2023-08-17T00:24:23;6.47;;;1.97;;
24617;SDS011;12762;51.730;5.356;2023-08-17T00:26:50;6.97;;;2.20;;
24617;SDS011;12762;51.730;5.356;2023-08-17T00:29:17;3.07;;;1.97;;
24617;SDS011;12762;51.730;5.356;2023-08-17T00:31:43;4.30;;;1.90;;
24617;SDS011;12762;51.730;5.356;2023-08-17T00:34:10;4.37;;;2.17;;
24617;SDS011;12762;51.730;5.356;2023-08-17T00:36:37;5.27;;;2.03;;
24617;SDS011;12762;51.730;5.356;2023-08-17T00:39:06;3.60;;;1.93;;
24617;SDS011;12762;51.730;5.356;2023-08-17T00:41:37;5.70;;;1.80;;
24617;SDS011;12762;51.730;5.356;2023-08-17T00:44:03;4.77;;;2.10;;
24617;SDS011;12762;51.730;5.356;2023-08-17T00:46:31;5.33;;;2.27;;
24617;SDS011;12762;51.730;5.356;2023-08-17T00:48:58;3.83;;;1.87;;
24617;SDS011;12762;51.730;5.356;2023-08-17T00:51:31;5.10;;;1.77;;
24617;SDS011;12762;51.730;5.356;2023-08-17T00:54:01;7.83;;;2.30;;
24617;SDS011;12762;51.730;5.356;2023-08-17T00:56:28;4.57;;;1.70;;
24617;SDS011;12762;51.730;5.356;2023-08-17T00:58:55;3.37;;;1.57;;
24617;SDS011;12762;51.730;5.356;2023-08-17T01:01:23;4.23;;;1.60;;
24617;SDS011;12762;51.730;5.356;2023-08-17T01:03:50;7.27;;;2.13;;
24617;SDS011;12762;51.730;5.356;2023-08-17T01:06:17;5.57;;;1.60;;
24617;SDS011;12762;51.730;5.356;2023-08-17T01:08:45;5.77;;;2.10;;
24617;SDS011;12762;51.730;5.356;2023-08-17T01:13:50;3.97;;;1.97;;
24617;SDS011;12762;51.730;5.356;2023-08-17T01:16:30;7.37;;;2.50;;
24617;SDS011;12762;51.730;5.356;2023-08-17T01:19:12;4.67;;;1.90;;
24617;SDS011;12762;51.730;5.356;2023-08-17T01:21:50;3.20;;;1.70;;
24617;SDS011;12762;51.730;5.356;2023-08-17T01:24:17;3.53;;;1.80;;
24617;SDS011;12762;51.730;5.356;2023-08-17T01:26:44;6.20;;;2.03;;
24617;SDS011;12762;51.730;5.356;2023-08-17T01:29:11;4.03;;;2.07;;
24617;SDS011;12762;51.730;5.356;2023-08-17T01:31:53;2.50;;;1.70;;
24617;SDS011;12762;51.730;5.356;2023-08-17T01:34:35;4.90;;;2.03;;
24617;SDS011;12762;51.730;5.356;2023-08-17T01:37:07;3.37;;;1.87;;
24617;SDS011;12762;51.730;5.356;2023-08-17T01:39:37;3.90;;;1.60;;
24617;SDS011;12762;51.730;5.356;2023-08-17T01:42:09;3.03;;;1.57;;
24617;SDS011;12762;51.730;5.356;2023-08-17T01:44:38;4.07;;;2.10;;
24617;SDS011;12762;51.730;5.356;2023-08-17T01:47:05;3.10;;;1.80;;
24617;SDS011;12762;51.730;5.356;2023-08-17T01:49:32;2.87;;;1.90;;
24617;SDS011;12762;51.730;5.356;2023-08-17T01:51:59;4.30;;;1.80;;
24617;SDS011;12762;51.730;5.356;2023-08-17T01:54:31;5.57;;;1.77;;
24617;SDS011;12762;51.730;5.356;2023-08-17T01:57:01;7.10;;;2.30;;
24617;SDS011;12762;51.730;5.356;2023-08-17T01:59:28;5.13;;;1.60;;
24617;SDS011;12762;51.730;5.356;2023-08-17T02:01:55;4.40;;;2.03;;
24617;SDS011;12762;51.730;5.356;2023-08-17T02:04:25;4.80;;;1.93;;
24617;SDS011;12762;51.730;5.356;2023-08-17T02:06:51;4.30;;;2.00;;
24617;SDS011;12762;51.730;5.356;2023-08-17T02:09:18;5.60;;;2.00;;
24617;SDS011;12762;51.730;5.356;2023-08-17T02:11:45;3.33;;;2.00;;
24617;SDS011;12762;51.730;5.356;2023-08-17T02:14:12;4.57;;;1.90;;
24617;SDS011;12762;51.730;5.356;2023-08-17T02:16:38;3.43;;;2.00;;
24617;SDS011;12762;51.730;5.356;2023-08-17T02:19:05;3.67;;;1.80;;
24617;SDS011;12762;51.730;5.356;2023-08-17T02:21:32;6.70;;;2.03;;
24617;SDS011;12762;51.730;5.356;2023-08-17T02:23:59;5.33;;;2.17;;
24617;SDS011;12762;51.730;5.356;2023-08-17T02:26:25;6.73;;;2.30;;
24617;SDS011;12762;51.730;5.356;2023-08-17T02:28:52;3.83;;;2.37;;
24617;SDS011;12762;51.730;5.356;2023-08-17T02:31:19;5.13;;;2.33;;
24617;SDS011;12762;51.730;5.356;2023-08-17T02:33:46;5.47;;;2.53;;
24617;SDS011;12762;51.730;5.356;2023-08-17T02:36:20;3.97;;;2.33;;
24617;SDS011;12762;51.730;5.356;2023-08-17T02:38:47;3.50;;;2.03;;
24617;SDS011;12762;51.730;5.356;2023-08-17T02:41:13;3.93;;;2.07;;
24617;SDS011;12762;51.730;5.356;2023-08-17T02:43:40;7.13;;;2.80;;
24617;SDS011;12762;51.730;5.356;2023-08-17T02:46:07;5.20;;;2.07;;
24617;SDS011;12762;51.730;5.356;2023-08-17T02:48:34;6.33;;;1.50;;
24617;SDS011;12762;51.730;5.356;2023-08-17T02:51:01;6.47;;;2.40;;
24617;SDS011;12762;51.730;5.356;2023-08-17T02:53:27;3.20;;;1.90;;
24617;SDS011;12762;51.730;5.356;2023-08-17T02:55:54;5.60;;;2.10;;
24617;SDS011;12762;51.730;5.356;2023-08-17T02:58:21;8.47;;;2.60;;
24617;SDS011;12762;51.730;5.356;2023-08-17T03:00:50;5.03;;;1.93;;
24617;SDS011;12762;51.730;5.356;2023-08-17T03:03:18;3.27;;;1.70;;
24617;SDS011;12762;51.730;5.356;2023-08-17T03:05:45;5.83;;;2.30;;
24617;SDS011;12762;51.730;5.356;2023-08-17T03:08:11;4.43;;;1.97;;
24617;SDS011;12762;51.730;5.356;2023-08-17T03:10:41;3.87;;;1.70;;
24617;SDS011;12762;51.730;5.356;2023-08-17T03:13:08;5.47;;;1.90;;
24617;SDS011;12762;51.730;5.356;2023-08-17T03:15:35;4.57;;;1.80;;
24617;SDS011;12762;51.730;5.356;2023-08-17T03:18:06;5.70;;;1.97;;
24617;SDS011;12762;51.730;5.356;2023-08-17T03:20:33;3.43;;;1.93;;
24617;SDS011;12762;51.730;5.356;2023-08-17T03:23:00;4.80;;;2.17;;
24617;SDS011;12762;51.730;5.356;2023-08-17T03:25:27;5.07;;;1.90;;
24617;SDS011;12762;51.730;5.356;2023-08-17T03:27:56;5.47;;;1.90;;
24617;SDS011;12762;51.730;5.356;2023-08-17T03:30:26;6.20;;;1.90;;
24617;SDS011;12762;51.730;5.356;2023-08-17T03:32:53;4.87;;;2.10;;
24617;SDS011;12762;51.730;5.356;2023-08-17T03:35:19;4.40;;;2.57;;
24617;SDS011;12762;51.730;5.356;2023-08-17T03:37:46;7.33;;;2.30;;
24617;SDS011;12762;51.730;5.356;2023-08-17T03:40:13;3.20;;;1.70;;
24617;SDS011;12762;51.730;5.356;2023-08-17T03:42:40;4.77;;;2.30;;
24617;SDS011;12762;51.730;5.356;2023-08-17T03:45:07;5.87;;;2.27;;
24617;SDS011;12762;51.730;5.356;2023-08-17T03:47:34;7.30;;;2.20;;
24617;SDS011;12762;51.730;5.356;2023-08-17T03:50:01;5.23;;;2.00;;
24617;SDS011;12762;51.730;5.356;2023-08-17T03:52:28;4.30;;;1.90;;
24617;SDS011;12762;51.730;5.356;2023-08-17T03:54:55;6.20;;;1.93;;
24617;SDS011;12762;51.730;5.356;2023-08-17T03:57:22;5.03;;;1.87;;
24617;SDS011;12762;51.730;5.356;2023-08-17T03:59:49;3.77;;;2.03;;
24617;SDS011;12762;51.730;5.356;2023-08-17T04:02:16;4.63;;;1.90;;
24617;SDS011;12762;51.730;5.356;2023-08-17T04:04:42;5.23;;;2.27;;
24617;SDS011;12762;51.730;5.356;2023-08-17T04:07:10;5.00;;;2.00;;
24617;SDS011;12762;51.730;5.356;2023-08-17T04:09:36;3.80;;;2.07;;
24617;SDS011;12762;51.730;5.356;2023-08-17T04:12:03;4.60;;;2.00;;
24617;SDS011;12762;51.730;5.356;2023-08-17T04:14:32;4.73;;;1.90;;
24617;SDS011;12762;51.730;5.356;2023-08-17T04:17:01;7.13;;;2.30;;
24617;SDS011;12762;51.730;5.356;2023-08-17T04:19:34;6.60;;;1.87;;
24617;SDS011;12762;51.730;5.356;2023-08-17T04:22:01;4.83;;;2.13;;
24617;SDS011;12762;51.730;5.356;2023-08-17T04:24:28;3.77;;;1.53;;
24617;SDS011;12762;51.730;5.356;2023-08-17T04:26:55;5.93;;;1.97;;
24617;SDS011;12762;51.730;5.356;2023-08-17T04:29:22;7.53;;;2.00;;
24617;SDS011;12762;51.730;5.356;2023-08-17T04:31:51;6.70;;;2.53;;
24617;SDS011;12762;51.730;5.356;2023-08-17T04:34:19;5.27;;;2.40;;
24617;SDS011;12762;51.730;5.356;2023-08-17T04:36:46;5.10;;;2.00;;
24617;SDS011;12762;51.730;5.356;2023-08-17T04:39:13;3.63;;;2.20;;
24617;SDS011;12762;51.730;5.356;2023-08-17T04:41:40;5.47;;;2.27;;
24617;SDS011;12762;51.730;5.356;2023-08-17T04:44:07;6.47;;;2.07;;
24617;SDS011;12762;51.730;5.356;2023-08-17T04:46:33;3.97;;;2.20;;
24617;SDS011;12762;51.730;5.356;2023-08-17T04:49:03;3.23;;;2.17;;
24617;SDS011;12762;51.730;5.356;2023-08-17T04:51:30;5.03;;;1.73;;
24617;SDS011;12762;51.730;5.356;2023-08-17T04:53:57;4.30;;;1.97;;
24617;SDS011;12762;51.730;5.356;2023-08-17T04:56:24;8.47;;;2.07;;
24617;SDS011;12762;51.730;5.356;2023-08-17T04:58:50;4.77;;;2.17;;
24617;SDS011;12762;51.730;5.356;2023-08-17T05:01:20;4.07;;;1.80;;
24617;SDS011;12762;51.730;5.356;2023-08-17T05:03:47;4.17;;;2.00;;
24617;SDS011;12762;51.730;5.356;2023-08-17T05:06:14;4.27;;;1.80;;
24617;SDS011;12762;51.730;5.356;2023-08-17T05:08:40;4.50;;;1.87;;
24617;SDS011;12762;51.730;5.356;2023-08-17T05:11:07;5.37;;;1.87;;
24617;SDS011;12762;51.730;5.356;2023-08-17T05:13:35;4.43;;;2.13;;
24617;SDS011;12762;51.730;5.356;2023-08-17T05:16:01;4.00;;;1.90;;
24617;SDS011;12762;51.730;5.356;2023-08-17T05:18:28;4.80;;;1.80;;
24617;SDS011;12762;51.730;5.356;2023-08-17T05:20:55;5.20;;;1.83;;
24617;SDS011;12762;51.730;5.356;2023-08-17T05:23:22;4.93;;;1.90;;
24617;SDS011;12762;51.730;5.356;2023-08-17T05:25:51;7.03;;;1.87;;
24617;SDS011;12762;51.730;5.356;2023-08-17T05:28:17;6.03;;;2.00;;
24617;SDS011;12762;51.730;5.356;2023-08-17T05:30:44;6.03;;;2.20;;
24617;SDS011;12762;51.730;5.356;2023-08-17T05:33:11;4.63;;;2.10;;
24617;SDS011;12762;51.730;5.356;2023-08-17T05:35:38;7.37;;;2.30;;
24617;SDS011;12762;51.730;5.356;2023-08-17T05:38:08;4.53;;;2.27;;
24617;SDS011;12762;51.730;5.356;2023-08-17T05:40:37;7.70;;;2.33;;
24617;SDS011;12762;51.730;5.356;2023-08-17T05:43:04;6.73;;;2.40;;
24617;SDS011;12762;51.730;5.356;2023-08-17T05:45:31;3.47;;;1.80;;
24617;SDS011;12762;51.730;5.356;2023-08-17T05:48:01;4.47;;;1.73;;
24617;SDS011;12762;51.730;5.356;2023-08-17T05:50:31;5.27;;;2.10;;
24617;SDS011;12762;51.730;5.356;2023-08-17T05:52:57;4.47;;;1.70;;
24617;SDS011;12762;51.730;5.356;2023-08-17T05:55:28;5.33;;;1.93;;
24617;SDS011;12762;51.730;5.356;2023-08-17T05:57:55;6.37;;;1.90;;
24617;SDS011;12762;51.730;5.356;2023-08-17T06:00:22;3.67;;;1.87;;
24617;SDS011;12762;51.730;5.356;2023-08-17T06:02:49;5.70;;;2.07;;
24617;SDS011;12762;51.730;5.356;2023-08-17T06:05:18;6.83;;;2.10;;
24617;SDS011;12762;51.730;5.356;2023-08-17T06:07:44;3.43;;;1.70;;
24617;SDS011;12762;51.730;5.356;2023-08-17T06:10:11;3.07;;;1.50;;
24617;SDS011;12762;51.730;5.356;2023-08-17T06:12:38;4.53;;;2.00;;
24617;SDS011;12762;51.730;5.356;2023-08-17T06:15:05;2.97;;;2.07;;
24617;SDS011;12762;51.730;5.356;2023-08-17T06:17:32;4.07;;;2.10;;
24617;SDS011;12762;51.730;5.356;2023-08-17T06:20:02;3.77;;;2.07;;
24617;SDS011;12762;51.730;5.356;2023-08-17T06:22:29;4.87;;;1.97;;
24617;SDS011;12762;51.730;5.356;2023-08-17T06:24:56;6.10;;;1.93;;
24617;SDS011;12762;51.730;5.356;2023-08-17T06:27:26;6.77;;;1.90;;
24617;SDS011;12762;51.730;5.356;2023-08-17T06:29:53;5.50;;;1.83;;
24617;SDS011;12762;51.730;5.356;2023-08-17T06:32:23;4.53;;;2.17;;
24617;SDS011;12762;51.730;5.356;2023-08-17T06:34:50;5.43;;;1.90;;
24617;SDS011;12762;51.730;5.356;2023-08-17T06:37:17;4.13;;;1.73;;
24617;SDS011;12762;51.730;5.356;2023-08-17T06:39:43;4.20;;;1.83;;
24617;SDS011;12762;51.730;5.356;2023-08-17T06:42:10;6.17;;;1.90;;
24617;SDS011;12762;51.730;5.356;2023-08-17T06:44:37;6.03;;;2.20;;
24617;SDS011;12762;51.730;5.356;2023-08-17T06:47:04;4.87;;;1.80;;
24617;SDS011;12762;51.730;5.356;2023-08-17T06:49:35;2.57;;;1.63;;
24617;SDS011;12762;51.730;5.356;2023-08-17T06:52:04;4.57;;;1.70;;
24617;SDS011;12762;51.730;5.356;2023-08-17T06:54:34;5.53;;;2.13;;
24617;SDS011;12762;51.730;5.356;2023-08-17T06:57:01;4.37;;;2.00;;
24617;SDS011;12762;51.730;5.356;2023-08-17T06:59:28;9.27;;;2.37;;
24617;SDS011;12762;51.730;5.356;2023-08-17T07:01:55;4.20;;;1.83;;
24617;SDS011;12762;51.730;5.356;2023-08-17T07:04:23;5.10;;;1.80;;
24617;SDS011;12762;51.730;5.356;2023-08-17T07:06:49;2.23;;;1.57;;
24617;SDS011;12762;51.730;5.356;2023-08-17T07:09:16;6.27;;;1.90;;
24617;SDS011;12762;51.730;5.356;2023-08-17T07:11:43;5.23;;;1.83;;
24617;SDS011;12762;51.730;5.356;2023-08-17T07:14:10;5.47;;;2.13;;
24617;SDS011;12762;51.730;5.356;2023-08-17T07:16:37;5.70;;;2.13;;
24617;SDS011;12762;51.730;5.356;2023-08-17T07:19:04;3.37;;;2.00;;
24617;SDS011;12762;51.730;5.356;2023-08-17T07:21:31;5.67;;;1.80;;
24617;SDS011;12762;51.730;5.356;2023-08-17T07:23:57;4.13;;;1.67;;
24617;SDS011;12762;51.730;5.356;2023-08-17T07:26:37;6.10;;;1.90;;
24617;SDS011;12762;51.730;5.356;2023-08-17T07:29:04;4.97;;;1.90;;
24617;SDS011;12762;51.730;5.356;2023-08-17T07:31:31;3.80;;;1.97;;
24617;SDS011;12762;51.730;5.356;2023-08-17T07:34:00;4.73;;;1.80;;
24617;SDS011;12762;51.730;5.356;2023-08-17T07:36:27;3.03;;;1.63;;
24617;SDS011;12762;51.730;5.356;2023-08-17T07:38:53;3.33;;;1.90;;
24617;SDS011;12762;51.730;5.356;2023-08-17T07:41:20;3.57;;;1.60;;
24617;SDS011;12762;51.730;5.356;2023-08-17T07:43:47;5.50;;;2.10;;
24617;SDS011;12762;51.730;5.356;2023-08-17T07:46:14;5.00;;;1.90;;
24617;SDS011;12762;51.730;5.356;2023-08-17T07:48:41;5.90;;;2.37;;
24617;SDS011;12762;51.730;5.356;2023-08-17T07:51:08;6.50;;;1.90;;
24617;SDS011;12762;51.730;5.356;2023-08-17T07:53:35;4.67;;;1.57;;
24617;SDS011;12762;51.730;5.356;2023-08-17T07:56:02;4.63;;;1.63;;
24617;SDS011;12762;51.730;5.356;2023-08-17T07:58:28;4.83;;;1.83;;
24617;SDS011;12762;51.730;5.356;2023-08-17T08:00:55;4.97;;;2.07;;
24617;SDS011;12762;51.730;5.356;2023-08-17T08:03:22;7.63;;;1.87;;
24617;SDS011;12762;51.730;5.356;2023-08-17T08:05:49;3.50;;;1.77;;
24617;SDS011;12762;51.730;5.356;2023-08-17T08:08:16;5.83;;;1.90;;
24617;SDS011;12762;51.730;5.356;2023-08-17T08:10:43;5.13;;;2.10;;
24617;SDS011;12762;51.730;5.356;2023-08-17T08:13:11;5.23;;;2.07;;
24617;SDS011;12762;51.730;5.356;2023-08-17T08:15:39;6.13;;;2.10;;
24617;SDS011;12762;51.730;5.356;2023-08-17T08:18:05;5.67;;;2.10;;
24617;SDS011;12762;51.730;5.356;2023-08-17T08:20:32;8.77;;;2.20;;
24617;SDS011;12762;51.730;5.356;2023-08-17T08:22:59;4.67;;;2.00;;
24617;SDS011;12762;51.730;5.356;2023-08-17T08:25:34;5.70;;;2.23;;
24617;SDS011;12762;51.730;5.356;2023-08-17T08:28:01;5.70;;;2.00;;
24617;SDS011;12762;51.730;5.356;2023-08-17T08:30:27;7.30;;;2.20;;
24617;SDS011;12762;51.730;5.356;2023-08-17T08:32:54;5.20;;;2.03;;
24617;SDS011;12762;51.730;5.356;2023-08-17T08:35:26;4.23;;;1.90;;
24617;SDS011;12762;51.730;5.356;2023-08-17T08:37:54;4.47;;;1.97;;
24617;SDS011;12762;51.730;5.356;2023-08-17T08:40:29;6.07;;;2.10;;
24617;SDS011;12762;51.730;5.356;2023-08-17T08:42:56;3.77;;;1.90;;
24617;SDS011;12762;51.730;5.356;2023-08-17T08:45:24;6.80;;;2.20;;
24617;SDS011;12762;51.730;5.356;2023-08-17T08:47:52;7.63;;;2.40;;
24617;SDS011;12762;51.730;5.356;2023-08-17T08:50:20;6.97;;;2.27;;
24617;SDS011;12762;51.730;5.356;2023-08-17T08:52:59;5.33;;;2.33;;
24617;SDS011;12762;51.730;5.356;2023-08-17T08:55:28;6.83;;;1.93;;
24617;SDS011;12762;51.730;5.356;2023-08-17T08:57:56;4.90;;;2.37;;
24617;SDS011;12762;51.730;5.356;2023-08-17T09:00:24;6.50;;;2.17;;
24617;SDS011;12762;51.730;5.356;2023-08-17T09:02:52;5.97;;;2.33;;
24617;SDS011;12762;51.730;5.356;2023-08-17T09:05:23;6.60;;;2.53;;
24617;SDS011;12762;51.730;5.356;2023-08-17T09:07:50;6.93;;;2.57;;
24617;SDS011;12762;51.730;5.356;2023-08-17T09:10:19;5.43;;;2.43;;
24617;SDS011;12762;51.730;5.356;2023-08-17T09:12:46;5.70;;;2.50;;
24617;SDS011;12762;51.730;5.356;2023-08-17T09:15:15;5.83;;;2.40;;
24617;SDS011;12762;51.730;5.356;2023-08-17T09:17:42;5.43;;;2.60;;
24617;SDS011;12762;51.730;5.356;2023-08-17T09:20:09;5.80;;;2.33;;
24617;SDS011;12762;51.730;5.356;2023-08-17T09:22:40;4.93;;;2.50;;
24617;SDS011;12762;51.730;5.356;2023-08-17T09:25:08;5.93;;;2.77;;
24617;SDS011;12762;51.730;5.356;2023-08-17T09:27:37;2.90;;;2.07;;
24617;SDS011;12762;51.730;5.356;2023-08-17T09:30:08;5.37;;;2.80;;
24617;SDS011;12762;51.730;5.356;2023-08-17T09:32:36;6.60;;;2.90;;
24617;SDS011;12762;51.730;5.356;2023-08-17T09:35:06;6.97;;;3.07;;
24617;SDS011;12762;51.730;5.356;2023-08-17T09:37:33;5.57;;;2.53;;
24617;SDS011;12762;51.730;5.356;2023-08-17T09:40:00;8.50;;;3.03;;
24617;SDS011;12762;51.730;5.356;2023-08-17T09:42:27;5.83;;;2.63;;
24617;SDS011;12762;51.730;5.356;2023-08-17T09:44:54;5.87;;;2.87;;
24617;SDS011;12762;51.730;5.356;2023-08-17T09:47:22;5.40;;;2.53;;
24617;SDS011;12762;51.730;5.356;2023-08-17T09:49:52;8.97;;;2.63;;
24617;SDS011;12762;51.730;5.356;2023-08-17T09:52:22;5.90;;;3.00;;
24617;SDS011;12762;51.730;5.356;2023-08-17T09:54:52;7.37;;;3.80;;
24617;SDS011;12762;51.730;5.356;2023-08-17T09:57:21;6.27;;;3.40;;
24617;SDS011;12762;51.730;5.356;2023-08-17T09:59:49;6.87;;;3.37;;
24617;SDS011;12762;51.730;5.356;2023-08-17T10:02:22;8.40;;;3.60;;
24617;SDS011;12762;51.730;5.356;2023-08-17T10:04:53;7.10;;;3.40;;
24617;SDS011;12762;51.730;5.356;2023-08-17T10:07:26;9.60;;;3.33;;
24617;SDS011;12762;51.730;5.356;2023-08-17T10:10:00;7.37;;;3.30;;
24617;SDS011;12762;51.730;5.356;2023-08-17T10:12:32;8.13;;;3.80;;
24617;SDS011;12762;51.730;5.356;2023-08-17T10:15:07;9.40;;;3.57;;
24617;SDS011;12762;51.730;5.356;2023-08-17T10:17:42;8.37;;;3.60;;
24617;SDS011;12762;51.730;5.356;2023-08-17T10:20:13;9.03;;;4.17;;
24617;SDS011;12762;51.730;5.356;2023-08-17T10:22:50;8.17;;;3.70;;
24617;SDS011;12762;51.730;5.356;2023-08-17T10:25:22;7.93;;;3.50;;
24617;SDS011;12762;51.730;5.356;2023-08-17T10:27:50;5.73;;;3.40;;
24617;SDS011;12762;51.730;5.356;2023-08-17T10:30:18;8.73;;;3.43;;
24617;SDS011;12762;51.730;5.356;2023-08-17T10:32:45;6.77;;;3.17;;
24617;SDS011;12762;51.730;5.356;2023-08-17T10:35:13;6.47;;;3.57;;
24617;SDS011;12762;51.730;5.356;2023-08-17T10:37:40;7.80;;;3.57;;
24617;SDS011;12762;51.730;5.356;2023-08-17T10:40:08;7.30;;;3.53;;
24617;SDS011;12762;51.730;5.356;2023-08-17T10:42:40;6.30;;;3.73;;
24617;SDS011;12762;51.730;5.356;2023-08-17T10:48:24;9.60;;;4.93;;
24617;SDS011;12762;51.730;5.356;2023-08-17T10:51:01;10.53;;;5.47;;
24617;SDS011;12762;51.730;5.356;2023-08-17T10:53:33;8.17;;;4.73;;
24617;SDS011;12762;51.730;5.356;2023-08-17T10:56:06;7.47;;;4.80;;
24617;SDS011;12762;51.730;5.356;2023-08-17T10:58:35;8.13;;;4.53;;
24617;SDS011;12762;51.730;5.356;2023-08-17T11:01:02;9.53;;;4.33;;
24617;SDS011;12762;51.730;5.356;2023-08-17T11:03:29;7.73;;;4.37;;
24617;SDS011;12762;51.730;5.356;2023-08-17T11:05:56;16.47;;;5.20;;
24617;SDS011;12762;51.730;5.356;2023-08-17T11:11:09;9.70;;;5.47;;
24617;SDS011;12762;51.730;5.356;2023-08-17T11:13:40;10.43;;;4.90;;
24617;SDS011;12762;51.730;5.356;2023-08-17T11:16:09;9.87;;;5.43;;
24617;SDS011;12762;51.730;5.356;2023-08-17T11:18:42;9.67;;;5.27;;
24617;SDS011;12762;51.730;5.356;2023-08-17T11:21:10;11.00;;;5.50;;
24617;SDS011;12762;51.730;5.356;2023-08-17T11:23:37;9.07;;;4.93;;
24617;SDS011;12762;51.730;5.356;2023-08-17T11:26:04;9.40;;;5.27;;
24617;SDS011;12762;51.730;5.356;2023-08-17T11:28:31;8.53;;;5.33;;
24617;SDS011;12762;51.730;5.356;2023-08-17T11:31:08;12.50;;;5.97;;
24617;SDS011;12762;51.730;5.356;2023-08-17T11:33:37;10.30;;;5.37;;
24617;SDS011;12762;51.730;5.356;2023-08-17T11:36:06;11.63;;;5.53;;
24617;SDS011;12762;51.730;5.356;2023-08-17T11:38:38;8.87;;;4.87;;
24617;SDS011;12762;51.730;5.356;2023-08-17T11:41:09;8.73;;;4.87;;
24617;SDS011;12762;51.730;5.356;2023-08-17T11:43:47;10.57;;;5.23;;
24617;SDS011;12762;51.730;5.356;2023-08-17T11:46:17;10.37;;;4.60;;
24617;SDS011;12762;51.730;5.356;2023-08-17T11:48:44;8.70;;;4.80;;
24617;SDS011;12762;51.730;5.356;2023-08-17T11:51:10;9.00;;;4.70;;
24617;SDS011;12762;51.730;5.356;2023-08-17T11:53:38;10.85;;;4.95;;
24617;SDS011;12762;51.730;5.356;2023-08-17T11:56:06;10.33;;;4.90;;
24617;SDS011;12762;51.730;5.356;2023-08-17T11:58:36;11.00;;;5.23;;
24617;SDS011;12762;51.730;5.356;2023-08-17T12:01:11;8.35;;;4.72;;
24617;SDS011;12762;51.730;5.356;2023-08-17T12:03:39;7.77;;;4.90;;
24617;SDS011;12762;51.730;5.356;2023-08-17T12:06:08;9.68;;;5.22;;
24617;SDS011;12762;51.730;5.356;2023-08-17T12:08:35;9.55;;;5.60;;
24617;SDS011;12762;51.730;5.356;2023-08-17T12:11:02;10.35;;;5.53;;
24617;SDS011;12762;51.730;5.356;2023-08-17T12:13:32;9.13;;;5.83;;
24617;SDS011;12762;51.730;5.356;2023-08-17T12:16:02;10.17;;;6.47;;
24617;SDS011;12762;51.730;5.356;2023-08-17T12:18:33;10.47;;;6.17;;
24617;SDS011;12762;51.730;5.356;2023-08-17T12:21:00;14.60;;;6.85;;
24617;SDS011;12762;51.730;5.356;2023-08-17T12:23:28;11.43;;;5.90;;
24617;SDS011;12762;51.730;5.356;2023-08-17T12:25:55;10.60;;;6.03;;
24617;SDS011;12762;51.730;5.356;2023-08-17T12:28:23;9.20;;;5.68;;
24617;SDS011;12762;51.730;5.356;2023-08-17T12:31:00;10.15;;;5.28;;
24617;SDS011;12762;51.730;5.356;2023-08-17T12:33:29;10.23;;;5.53;;
24617;SDS011;12762;51.730;5.356;2023-08-17T12:35:56;9.77;;;5.43;;
24617;SDS011;12762;51.730;5.356;2023-08-17T12:38:24;10.13;;;5.82;;
24617;SDS011;12762;51.730;5.356;2023-08-17T12:40:51;13.02;;;6.20;;
24617;SDS011;12762;51.730;5.356;2023-08-17T12:43:19;9.50;;;5.93;;
24617;SDS011;12762;51.730;5.356;2023-08-17T12:45:46;10.05;;;5.72;;
24617;SDS011;12762;51.730;5.356;2023-08-17T12:48:13;11.93;;;5.70;;
24617;SDS011;12762;51.730;5.356;2023-08-17T12:50:39;10.32;;;6.13;;
24617;SDS011;12762;51.730;5.356;2023-08-17T12:53:09;10.13;;;5.60;;
24617;SDS011;12762;51.730;5.356;2023-08-17T12:55:37;9.45;;;5.53;;
24617;SDS011;12762;51.730;5.356;2023-08-17T12:58:07;9.18;;;5.35;;
24617;SDS011;12762;51.730;5.356;2023-08-17T13:00:34;10.40;;;5.22;;
24617;SDS011;12762;51.730;5.356;2023-08-17T13:03:01;13.13;;;5.77;;
24617;SDS011;12762;51.730;5.356;2023-08-17T13:05:28;10.38;;;5.20;;
24617;SDS011;12762;51.730;5.356;2023-08-17T13:07:55;12.23;;;5.05;;
24617;SDS011;12762;51.730;5.356;2023-08-17T13:10:22;11.00;;;5.40;;
24617;SDS011;12762;51.730;5.356;2023-08-17T13:12:49;11.98;;;5.45;;
24617;SDS011;12762;51.730;5.356;2023-08-17T13:15:21;10.13;;;5.10;;
24617;SDS011;12762;51.730;5.356;2023-08-17T13:17:48;14.10;;;5.20;;
24617;SDS011;12762;51.730;5.356;2023-08-17T13:20:15;13.15;;;5.78;;
24617;SDS011;12762;51.730;5.356;2023-08-17T13:22:42;13.60;;;5.53;;
24617;SDS011;12762;51.730;5.356;2023-08-17T13:25:16;9.60;;;5.70;;
24617;SDS011;12762;51.730;5.356;2023-08-17T13:27:43;12.80;;;6.00;;
24617;SDS011;12762;51.730;5.356;2023-08-17T13:30:10;11.32;;;5.43;;
24617;SDS011;12762;51.730;5.356;2023-08-17T13:32:37;7.95;;;5.32;;
24617;SDS011;12762;51.730;5.356;2023-08-17T13:35:04;10.57;;;5.23;;
24617;SDS011;12762;51.730;5.356;2023-08-17T13:37:31;11.00;;;5.05;;
24617;SDS011;12762;51.730;5.356;2023-08-17T13:39:58;14.00;;;6.10;;
24617;SDS011;12762;51.730;5.356;2023-08-17T13:42:26;10.15;;;6.20;;
24617;SDS011;12762;51.730;5.356;2023-08-17T13:44:54;10.25;;;5.72;;
24617;SDS011;12762;51.730;5.356;2023-08-17T13:47:20;8.55;;;5.05;;
24617;SDS011;12762;51.730;5.356;2023-08-17T13:49:47;11.45;;;5.97;;
24617;SDS011;12762;51.730;5.356;2023-08-17T13:52:14;10.63;;;5.75;;
24617;SDS011;12762;51.730;5.356;2023-08-17T13:54:41;9.07;;;5.00;;
24617;SDS011;12762;51.730;5.356;2023-08-17T13:57:07;11.70;;;5.65;;
24617;SDS011;12762;51.730;5.356;2023-08-17T13:59:34;10.68;;;5.30;;
24617;SDS011;12762;51.730;5.356;2023-08-17T14:02:01;8.38;;;5.00;;
24617;SDS011;12762;51.730;5.356;2023-08-17T14:04:28;10.88;;;5.43;;
24617;SDS011;12762;51.730;5.356;2023-08-17T14:06:55;10.70;;;6.05;;
24617;SDS011;12762;51.730;5.356;2023-08-17T14:09:22;12.65;;;5.72;;
24617;SDS011;12762;51.730;5.356;2023-08-17T14:11:49;10.95;;;5.85;;
24617;SDS011;12762;51.730;5.356;2023-08-17T14:14:19;9.77;;;6.05;;
24617;SDS011;12762;51.730;5.356;2023-08-17T14:16:48;10.15;;;6.05;;
24617;SDS011;12762;51.730;5.356;2023-08-17T14:19:15;10.55;;;5.65;;
24617;SDS011;12762;51.730;5.356;2023-08-17T14:21:42;9.98;;;5.72;;
24617;SDS011;12762;51.730;5.356;2023-08-17T14:24:08;9.95;;;5.20;;
24617;SDS011;12762;51.730;5.356;2023-08-17T14:26:35;14.32;;;6.78;;
24617;SDS011;12762;51.730;5.356;2023-08-17T14:29:04;10.30;;;4.93;;
24617;SDS011;12762;51.730;5.356;2023-08-17T14:31:31;9.57;;;5.47;;
24617;SDS011;12762;51.730;5.356;2023-08-17T14:34:01;10.68;;;6.10;;
24617;SDS011;12762;51.730;5.356;2023-08-17T14:36:31;10.20;;;5.85;;
24617;SDS011;12762;51.730;5.356;2023-08-17T14:38:58;11.35;;;5.85;;
24617;SDS011;12762;51.730;5.356;2023-08-17T14:41:25;9.27;;;5.10;;
24617;SDS011;12762;51.730;5.356;2023-08-17T14:43:58;10.82;;;6.50;;
24617;SDS011;12762;51.730;5.356;2023-08-17T14:46:27;8.55;;;5.43;;
24617;SDS011;12762;51.730;5.356;2023-08-17T14:48:57;9.50;;;5.68;;
24617;SDS011;12762;51.730;5.356;2023-08-17T14:51:24;8.15;;;5.75;;
24617;SDS011;12762;51.730;5.356;2023-08-17T14:53:56;8.32;;;5.47;;
24617;SDS011;12762;51.730;5.356;2023-08-17T14:56:23;8.48;;;5.78;;
24617;SDS011;12762;51.730;5.356;2023-08-17T14:58:57;10.52;;;6.28;;
24617;SDS011;12762;51.730;5.356;2023-08-17T15:01:25;9.10;;;5.57;;